sensor_id;sensor_type;location;lat;lon;timestamp;P1;durP1;ratioP1;P2;durP2;ratioP2
19758;SDS011;10038;42.662;23.278;2023-05-07T00:02:11;15.17;;;11.73;;
19758;SDS011;10038;42.662;23.278;2023-05-07T00:04:38;15.53;;;11.20;;
19758;SDS011;10038;42.662;23.278;2023-05-07T00:07:05;14.53;;;11.03;;
19758;SDS011;10038;42.662;23.278;2023-05-07T00:09:32;13.77;;;10.20;;
19758;SDS011;10038;42.662;23.278;2023-05-07T00:11:59;13.10;;;10.43;;
19758;SDS011;10038;42.662;23.278;2023-05-07T00:14:26;11.83;;;10.43;;
19758;SDS011;10038;42.662;23.278;2023-05-07T00:16:53;12.50;;;8.63;;
19758;SDS011;10038;42.662;23.278;2023-05-07T00:19:21;15.20;;;9.17;;
19758;SDS011;10038;42.662;23.278;2023-05-07T00:21:48;12.03;;;8.83;;
19758;SDS011;10038;42.662;23.278;2023-05-07T00:24:15;13.87;;;9.20;;
19758;SDS011;10038;42.662;23.278;2023-05-07T00:26:42;10.10;;;8.27;;
19758;SDS011;10038;42.662;23.278;2023-05-07T00:29:09;15.03;;;10.63;;
19758;SDS011;10038;42.662;23.278;2023-05-07T00:31:36;10.97;;;9.00;;
19758;SDS011;10038;42.662;23.278;2023-05-07T00:34:03;10.67;;;9.57;;
19758;SDS011;10038;42.662;23.278;2023-05-07T00:36:32;11.80;;;8.60;;
19758;SDS011;10038;42.662;23.278;2023-05-07T00:38:59;13.43;;;8.40;;
19758;SDS011;10038;42.662;23.278;2023-05-07T00:41:28;10.60;;;8.63;;
19758;SDS011;10038;42.662;23.278;2023-05-07T00:43:56;14.77;;;8.87;;
19758;SDS011;10038;42.662;23.278;2023-05-07T00:46:23;17.47;;;8.20;;
19758;SDS011;10038;42.662;23.278;2023-05-07T00:48:51;10.47;;;8.00;;
19758;SDS011;10038;42.662;23.278;2023-05-07T00:51:18;10.70;;;8.67;;
19758;SDS011;10038;42.662;23.278;2023-05-07T00:53:47;17.70;;;9.20;;
19758;SDS011;10038;42.662;23.278;2023-05-07T00:56:14;11.57;;;8.60;;
19758;SDS011;10038;42.662;23.278;2023-05-07T00:58:42;11.67;;;8.53;;
19758;SDS011;10038;42.662;23.278;2023-05-07T01:01:09;13.23;;;8.53;;
19758;SDS011;10038;42.662;23.278;2023-05-07T01:03:36;12.73;;;8.33;;
19758;SDS011;10038;42.662;23.278;2023-05-07T01:06:03;9.77;;;8.07;;
19758;SDS011;10038;42.662;23.278;2023-05-07T01:08:33;12.00;;;8.43;;
19758;SDS011;10038;42.662;23.278;2023-05-07T01:11:02;12.07;;;8.30;;
19758;SDS011;10038;42.662;23.278;2023-05-07T01:13:29;12.00;;;8.10;;
19758;SDS011;10038;42.662;23.278;2023-05-07T01:15:56;11.40;;;9.87;;
19758;SDS011;10038;42.662;23.278;2023-05-07T01:18:23;10.77;;;8.00;;
19758;SDS011;10038;42.662;23.278;2023-05-07T01:20:51;10.10;;;8.30;;
19758;SDS011;10038;42.662;23.278;2023-05-07T01:23:20;11.97;;;8.43;;
19758;SDS011;10038;42.662;23.278;2023-05-07T01:25:50;9.23;;;7.97;;
19758;SDS011;10038;42.662;23.278;2023-05-07T01:28:18;8.97;;;7.90;;
19758;SDS011;10038;42.662;23.278;2023-05-07T01:30:45;8.80;;;7.90;;
19758;SDS011;10038;42.662;23.278;2023-05-07T01:33:15;11.87;;;9.10;;
19758;SDS011;10038;42.662;23.278;2023-05-07T01:35:47;8.50;;;7.67;;
19758;SDS011;10038;42.662;23.278;2023-05-07T01:38:17;11.10;;;8.93;;
19758;SDS011;10038;42.662;23.278;2023-05-07T01:40:47;11.80;;;8.27;;
19758;SDS011;10038;42.662;23.278;2023-05-07T01:43:14;8.97;;;8.07;;
19758;SDS011;10038;42.662;23.278;2023-05-07T01:45:42;11.43;;;8.23;;
19758;SDS011;10038;42.662;23.278;2023-05-07T01:48:10;9.07;;;7.57;;
19758;SDS011;10038;42.662;23.278;2023-05-07T01:50:38;11.50;;;9.10;;
19758;SDS011;10038;42.662;23.278;2023-05-07T01:53:06;11.00;;;7.60;;
19758;SDS011;10038;42.662;23.278;2023-05-07T01:55:34;10.20;;;8.10;;
19758;SDS011;10038;42.662;23.278;2023-05-07T01:58:02;9.80;;;8.40;;
19758;SDS011;10038;42.662;23.278;2023-05-07T02:00:29;10.73;;;8.60;;
19758;SDS011;10038;42.662;23.278;2023-05-07T02:02:56;9.27;;;7.90;;
19758;SDS011;10038;42.662;23.278;2023-05-07T02:05:24;11.33;;;8.80;;
19758;SDS011;10038;42.662;23.278;2023-05-07T02:07:51;9.87;;;8.03;;
19758;SDS011;10038;42.662;23.278;2023-05-07T02:10:18;10.10;;;8.67;;
19758;SDS011;10038;42.662;23.278;2023-05-07T02:12:46;11.63;;;9.17;;
19758;SDS011;10038;42.662;23.278;2023-05-07T02:15:13;10.63;;;8.87;;
19758;SDS011;10038;42.662;23.278;2023-05-07T02:20:26;12.43;;;8.87;;
19758;SDS011;10038;42.662;23.278;2023-05-07T02:22:53;12.67;;;8.33;;
19758;SDS011;10038;42.662;23.278;2023-05-07T02:25:20;11.40;;;9.00;;
19758;SDS011;10038;42.662;23.278;2023-05-07T02:27:48;12.33;;;9.37;;
19758;SDS011;10038;42.662;23.278;2023-05-07T02:30:15;11.43;;;9.30;;
19758;SDS011;10038;42.662;23.278;2023-05-07T02:32:42;10.40;;;8.33;;
19758;SDS011;10038;42.662;23.278;2023-05-07T02:35:10;14.43;;;8.57;;
19758;SDS011;10038;42.662;23.278;2023-05-07T02:37:37;12.57;;;8.57;;
19758;SDS011;10038;42.662;23.278;2023-05-07T02:40:04;12.13;;;8.97;;
19758;SDS011;10038;42.662;23.278;2023-05-07T02:42:32;11.50;;;8.40;;
19758;SDS011;10038;42.662;23.278;2023-05-07T02:45:00;12.27;;;8.30;;
19758;SDS011;10038;42.662;23.278;2023-05-07T02:47:28;10.60;;;8.50;;
19758;SDS011;10038;42.662;23.278;2023-05-07T02:49:55;11.10;;;8.40;;
19758;SDS011;10038;42.662;23.278;2023-05-07T02:52:22;10.70;;;9.10;;
19758;SDS011;10038;42.662;23.278;2023-05-07T02:54:49;8.53;;;7.00;;
19758;SDS011;10038;42.662;23.278;2023-05-07T02:57:16;11.40;;;7.73;;
19758;SDS011;10038;42.662;23.278;2023-05-07T02:59:43;14.57;;;8.80;;
19758;SDS011;10038;42.662;23.278;2023-05-07T03:02:11;10.43;;;8.20;;
19758;SDS011;10038;42.662;23.278;2023-05-07T03:04:40;11.00;;;8.90;;
19758;SDS011;10038;42.662;23.278;2023-05-07T03:07:07;10.53;;;8.37;;
19758;SDS011;10038;42.662;23.278;2023-05-07T03:09:34;14.37;;;9.50;;
19758;SDS011;10038;42.662;23.278;2023-05-07T03:12:01;9.50;;;8.20;;
19758;SDS011;10038;42.662;23.278;2023-05-07T03:14:28;14.43;;;8.67;;
19758;SDS011;10038;42.662;23.278;2023-05-07T03:16:55;11.80;;;8.60;;
19758;SDS011;10038;42.662;23.278;2023-05-07T03:19:24;13.67;;;8.73;;
19758;SDS011;10038;42.662;23.278;2023-05-07T03:21:51;16.67;;;10.80;;
19758;SDS011;10038;42.662;23.278;2023-05-07T03:24:18;10.23;;;8.77;;
19758;SDS011;10038;42.662;23.278;2023-05-07T03:26:45;12.33;;;9.70;;
19758;SDS011;10038;42.662;23.278;2023-05-07T03:29:12;15.70;;;8.90;;
19758;SDS011;10038;42.662;23.278;2023-05-07T03:31:38;13.97;;;10.27;;
19758;SDS011;10038;42.662;23.278;2023-05-07T03:34:05;12.43;;;10.43;;
19758;SDS011;10038;42.662;23.278;2023-05-07T03:36:34;11.67;;;9.00;;
19758;SDS011;10038;42.662;23.278;2023-05-07T03:39:01;13.50;;;9.10;;
19758;SDS011;10038;42.662;23.278;2023-05-07T03:41:28;13.30;;;9.47;;
19758;SDS011;10038;42.662;23.278;2023-05-07T03:43:55;13.63;;;9.93;;
19758;SDS011;10038;42.662;23.278;2023-05-07T03:46:22;12.63;;;9.90;;
19758;SDS011;10038;42.662;23.278;2023-05-07T03:48:51;15.27;;;10.10;;
19758;SDS011;10038;42.662;23.278;2023-05-07T03:51:18;12.83;;;8.33;;
19758;SDS011;10038;42.662;23.278;2023-05-07T03:53:46;12.80;;;9.60;;
19758;SDS011;10038;42.662;23.278;2023-05-07T03:56:13;13.30;;;9.13;;
19758;SDS011;10038;42.662;23.278;2023-05-07T03:58:41;13.13;;;10.07;;
19758;SDS011;10038;42.662;23.278;2023-05-07T04:01:07;12.20;;;8.27;;
19758;SDS011;10038;42.662;23.278;2023-05-07T04:03:34;12.90;;;9.20;;
19758;SDS011;10038;42.662;23.278;2023-05-07T04:06:02;13.27;;;9.77;;
19758;SDS011;10038;42.662;23.278;2023-05-07T04:08:29;12.03;;;9.37;;
19758;SDS011;10038;42.662;23.278;2023-05-07T04:10:57;12.47;;;10.60;;
19758;SDS011;10038;42.662;23.278;2023-05-07T04:13:25;12.00;;;10.03;;
19758;SDS011;10038;42.662;23.278;2023-05-07T04:15:52;15.97;;;10.03;;
19758;SDS011;10038;42.662;23.278;2023-05-07T04:18:20;13.23;;;10.07;;
19758;SDS011;10038;42.662;23.278;2023-05-07T04:20:47;11.80;;;9.90;;
19758;SDS011;10038;42.662;23.278;2023-05-07T04:23:15;11.97;;;10.10;;
19758;SDS011;10038;42.662;23.278;2023-05-07T04:25:42;11.47;;;9.30;;
19758;SDS011;10038;42.662;23.278;2023-05-07T04:28:10;16.63;;;10.97;;
19758;SDS011;10038;42.662;23.278;2023-05-07T04:30:37;10.40;;;9.20;;
19758;SDS011;10038;42.662;23.278;2023-05-07T04:33:04;15.00;;;10.17;;
19758;SDS011;10038;42.662;23.278;2023-05-07T04:35:32;16.07;;;10.60;;
19758;SDS011;10038;42.662;23.278;2023-05-07T04:37:59;12.27;;;9.37;;
19758;SDS011;10038;42.662;23.278;2023-05-07T04:40:26;14.80;;;9.90;;
19758;SDS011;10038;42.662;23.278;2023-05-07T04:42:53;12.80;;;10.30;;
19758;SDS011;10038;42.662;23.278;2023-05-07T04:45:22;16.43;;;10.40;;
19758;SDS011;10038;42.662;23.278;2023-05-07T04:47:49;16.40;;;9.93;;
19758;SDS011;10038;42.662;23.278;2023-05-07T04:50:16;11.97;;;10.43;;
19758;SDS011;10038;42.662;23.278;2023-05-07T04:52:44;13.03;;;11.37;;
19758;SDS011;10038;42.662;23.278;2023-05-07T04:55:11;13.53;;;10.40;;
19758;SDS011;10038;42.662;23.278;2023-05-07T04:57:38;12.43;;;10.97;;
19758;SDS011;10038;42.662;23.278;2023-05-07T05:00:06;14.70;;;11.40;;
19758;SDS011;10038;42.662;23.278;2023-05-07T05:02:36;16.10;;;10.50;;
19758;SDS011;10038;42.662;23.278;2023-05-07T05:05:03;21.20;;;11.53;;
19758;SDS011;10038;42.662;23.278;2023-05-07T05:07:31;12.60;;;10.13;;
19758;SDS011;10038;42.662;23.278;2023-05-07T05:09:58;13.73;;;10.70;;
19758;SDS011;10038;42.662;23.278;2023-05-07T05:12:25;12.53;;;10.07;;
19758;SDS011;10038;42.662;23.278;2023-05-07T05:14:52;12.57;;;10.70;;
19758;SDS011;10038;42.662;23.278;2023-05-07T05:17:19;12.80;;;10.20;;
19758;SDS011;10038;42.662;23.278;2023-05-07T05:19:47;13.37;;;11.40;;
19758;SDS011;10038;42.662;23.278;2023-05-07T05:22:14;12.37;;;10.40;;
19758;SDS011;10038;42.662;23.278;2023-05-07T05:24:41;12.40;;;9.60;;
19758;SDS011;10038;42.662;23.278;2023-05-07T05:27:08;12.93;;;9.73;;
19758;SDS011;10038;42.662;23.278;2023-05-07T05:29:35;12.17;;;9.23;;
19758;SDS011;10038;42.662;23.278;2023-05-07T05:32:02;10.60;;;9.40;;
19758;SDS011;10038;42.662;23.278;2023-05-07T05:34:29;13.37;;;10.07;;
19758;SDS011;10038;42.662;23.278;2023-05-07T05:36:59;11.93;;;9.60;;
19758;SDS011;10038;42.662;23.278;2023-05-07T05:39:27;12.87;;;9.30;;
19758;SDS011;10038;42.662;23.278;2023-05-07T05:41:54;11.03;;;8.60;;
19758;SDS011;10038;42.662;23.278;2023-05-07T05:44:20;16.90;;;10.90;;
19758;SDS011;10038;42.662;23.278;2023-05-07T05:46:48;13.83;;;9.80;;
19758;SDS011;10038;42.662;23.278;2023-05-07T05:49:15;12.37;;;9.30;;
19758;SDS011;10038;42.662;23.278;2023-05-07T05:51:42;11.13;;;9.90;;
19758;SDS011;10038;42.662;23.278;2023-05-07T05:54:11;10.63;;;9.20;;
19758;SDS011;10038;42.662;23.278;2023-05-07T05:56:38;11.63;;;8.90;;
19758;SDS011;10038;42.662;23.278;2023-05-07T05:59:05;9.73;;;8.73;;
19758;SDS011;10038;42.662;23.278;2023-05-07T06:01:32;12.30;;;7.90;;
19758;SDS011;10038;42.662;23.278;2023-05-07T06:03:59;8.87;;;7.97;;
19758;SDS011;10038;42.662;23.278;2023-05-07T06:06:26;11.60;;;8.60;;
19758;SDS011;10038;42.662;23.278;2023-05-07T06:08:53;11.20;;;9.50;;
19758;SDS011;10038;42.662;23.278;2023-05-07T06:11:21;9.70;;;8.30;;
19758;SDS011;10038;42.662;23.278;2023-05-07T06:13:48;14.10;;;9.07;;
19758;SDS011;10038;42.662;23.278;2023-05-07T06:16:15;12.73;;;8.43;;
19758;SDS011;10038;42.662;23.278;2023-05-07T06:18:42;10.97;;;8.20;;
19758;SDS011;10038;42.662;23.278;2023-05-07T06:21:10;9.17;;;7.83;;
19758;SDS011;10038;42.662;23.278;2023-05-07T06:23:37;8.67;;;7.57;;
19758;SDS011;10038;42.662;23.278;2023-05-07T06:26:06;9.50;;;8.30;;
19758;SDS011;10038;42.662;23.278;2023-05-07T06:28:34;8.37;;;7.57;;
19758;SDS011;10038;42.662;23.278;2023-05-07T06:31:11;8.97;;;8.03;;
19758;SDS011;10038;42.662;23.278;2023-05-07T06:33:39;9.60;;;8.60;;
19758;SDS011;10038;42.662;23.278;2023-05-07T06:36:06;10.43;;;8.30;;
19758;SDS011;10038;42.662;23.278;2023-05-07T06:38:34;8.40;;;7.50;;
19758;SDS011;10038;42.662;23.278;2023-05-07T06:41:01;8.23;;;7.30;;
19758;SDS011;10038;42.662;23.278;2023-05-07T06:43:28;8.20;;;7.40;;
19758;SDS011;10038;42.662;23.278;2023-05-07T06:45:56;9.17;;;7.63;;
19758;SDS011;10038;42.662;23.278;2023-05-07T06:48:23;9.23;;;7.30;;
19758;SDS011;10038;42.662;23.278;2023-05-07T06:50:50;8.60;;;7.10;;
19758;SDS011;10038;42.662;23.278;2023-05-07T06:53:18;10.17;;;7.30;;
19758;SDS011;10038;42.662;23.278;2023-05-07T06:55:45;9.97;;;6.80;;
19758;SDS011;10038;42.662;23.278;2023-05-07T06:58:12;12.07;;;7.40;;
19758;SDS011;10038;42.662;23.278;2023-05-07T07:00:39;7.70;;;6.90;;
19758;SDS011;10038;42.662;23.278;2023-05-07T07:03:08;9.30;;;7.17;;
19758;SDS011;10038;42.662;23.278;2023-05-07T07:05:35;7.33;;;6.63;;
19758;SDS011;10038;42.662;23.278;2023-05-07T07:08:02;7.20;;;6.50;;
19758;SDS011;10038;42.662;23.278;2023-05-07T07:10:29;6.47;;;5.83;;
19758;SDS011;10038;42.662;23.278;2023-05-07T07:12:56;6.33;;;5.83;;
19758;SDS011;10038;42.662;23.278;2023-05-07T07:15:23;6.13;;;5.53;;
19758;SDS011;10038;42.662;23.278;2023-05-07T07:17:50;7.13;;;5.40;;
19758;SDS011;10038;42.662;23.278;2023-05-07T07:20:18;6.60;;;5.60;;
19758;SDS011;10038;42.662;23.278;2023-05-07T07:22:45;8.43;;;6.73;;
19758;SDS011;10038;42.662;23.278;2023-05-07T07:25:12;9.33;;;6.80;;
19758;SDS011;10038;42.662;23.278;2023-05-07T07:27:39;7.00;;;6.30;;
19758;SDS011;10038;42.662;23.278;2023-05-07T07:30:07;6.57;;;5.93;;
19758;SDS011;10038;42.662;23.278;2023-05-07T07:32:34;9.17;;;6.67;;
19758;SDS011;10038;42.662;23.278;2023-05-07T07:35:01;7.40;;;6.70;;
19758;SDS011;10038;42.662;23.278;2023-05-07T07:37:29;9.80;;;6.20;;
19758;SDS011;10038;42.662;23.278;2023-05-07T07:39:56;7.80;;;6.60;;
19758;SDS011;10038;42.662;23.278;2023-05-07T07:42:23;7.47;;;6.50;;
19758;SDS011;10038;42.662;23.278;2023-05-07T07:44:50;9.70;;;6.67;;
19758;SDS011;10038;42.662;23.278;2023-05-07T07:47:17;6.30;;;5.70;;
19758;SDS011;10038;42.662;23.278;2023-05-07T07:49:44;6.10;;;5.53;;
19758;SDS011;10038;42.662;23.278;2023-05-07T07:52:11;6.00;;;5.40;;
19758;SDS011;10038;42.662;23.278;2023-05-07T07:54:40;9.43;;;5.27;;
19758;SDS011;10038;42.662;23.278;2023-05-07T07:57:08;6.63;;;5.90;;
19758;SDS011;10038;42.662;23.278;2023-05-07T07:59:35;7.07;;;6.40;;
19758;SDS011;10038;42.662;23.278;2023-05-07T08:02:02;6.03;;;5.50;;
19758;SDS011;10038;42.662;23.278;2023-05-07T08:04:29;6.80;;;6.10;;
19758;SDS011;10038;42.662;23.278;2023-05-07T08:06:58;7.33;;;6.50;;
19758;SDS011;10038;42.662;23.278;2023-05-07T08:09:25;6.93;;;6.30;;
19758;SDS011;10038;42.662;23.278;2023-05-07T08:11:53;6.77;;;6.13;;
19758;SDS011;10038;42.662;23.278;2023-05-07T08:14:21;8.70;;;5.73;;
19758;SDS011;10038;42.662;23.278;2023-05-07T08:16:48;11.23;;;6.30;;
19758;SDS011;10038;42.662;23.278;2023-05-07T08:19:15;7.00;;;6.30;;
19758;SDS011;10038;42.662;23.278;2023-05-07T08:21:42;6.57;;;5.57;;
19758;SDS011;10038;42.662;23.278;2023-05-07T08:24:14;6.13;;;5.53;;
19758;SDS011;10038;42.662;23.278;2023-05-07T08:26:42;5.90;;;5.10;;
19758;SDS011;10038;42.662;23.278;2023-05-07T08:29:11;7.93;;;6.63;;
19758;SDS011;10038;42.662;23.278;2023-05-07T08:31:38;7.67;;;6.20;;
19758;SDS011;10038;42.662;23.278;2023-05-07T08:34:05;7.27;;;6.13;;
19758;SDS011;10038;42.662;23.278;2023-05-07T08:36:32;6.27;;;5.67;;
19758;SDS011;10038;42.662;23.278;2023-05-07T08:38:59;6.40;;;4.83;;
19758;SDS011;10038;42.662;23.278;2023-05-07T08:41:27;4.97;;;4.50;;
19758;SDS011;10038;42.662;23.278;2023-05-07T08:43:54;6.67;;;5.40;;
19758;SDS011;10038;42.662;23.278;2023-05-07T08:46:25;5.47;;;4.40;;
19758;SDS011;10038;42.662;23.278;2023-05-07T08:48:57;5.23;;;4.60;;
19758;SDS011;10038;42.662;23.278;2023-05-07T08:51:24;6.13;;;4.77;;
19758;SDS011;10038;42.662;23.278;2023-05-07T08:53:52;6.10;;;5.50;;
19758;SDS011;10038;42.662;23.278;2023-05-07T08:56:19;5.10;;;4.60;;
19758;SDS011;10038;42.662;23.278;2023-05-07T08:58:46;4.90;;;4.50;;
19758;SDS011;10038;42.662;23.278;2023-05-07T09:01:15;5.13;;;4.63;;
19758;SDS011;10038;42.662;23.278;2023-05-07T09:03:45;6.10;;;5.50;;
19758;SDS011;10038;42.662;23.278;2023-05-07T09:06:12;6.00;;;5.40;;
19758;SDS011;10038;42.662;23.278;2023-05-07T09:08:39;6.47;;;5.70;;
19758;SDS011;10038;42.662;23.278;2023-05-07T09:11:06;5.57;;;5.07;;
19758;SDS011;10038;42.662;23.278;2023-05-07T09:13:33;6.33;;;5.73;;
19758;SDS011;10038;42.662;23.278;2023-05-07T09:16:09;5.13;;;4.73;;
19758;SDS011;10038;42.662;23.278;2023-05-07T09:18:40;7.30;;;5.33;;
19758;SDS011;10038;42.662;23.278;2023-05-07T09:21:10;12.60;;;5.37;;
19758;SDS011;10038;42.662;23.278;2023-05-07T09:23:37;5.57;;;4.97;;
19758;SDS011;10038;42.662;23.278;2023-05-07T09:26:05;6.40;;;4.70;;
19758;SDS011;10038;42.662;23.278;2023-05-07T09:28:38;6.10;;;4.20;;
19758;SDS011;10038;42.662;23.278;2023-05-07T09:31:06;6.27;;;5.03;;
19758;SDS011;10038;42.662;23.278;2023-05-07T09:33:33;5.30;;;4.80;;
19758;SDS011;10038;42.662;23.278;2023-05-07T09:36:04;16.97;;;5.07;;
19758;SDS011;10038;42.662;23.278;2023-05-07T09:38:33;9.13;;;4.87;;
19758;SDS011;10038;42.662;23.278;2023-05-07T09:41:04;4.63;;;4.20;;
19758;SDS011;10038;42.662;23.278;2023-05-07T09:43:32;5.60;;;4.17;;
19758;SDS011;10038;42.662;23.278;2023-05-07T09:46:00;4.53;;;4.13;;
19758;SDS011;10038;42.662;23.278;2023-05-07T09:48:29;4.30;;;4.00;;
19758;SDS011;10038;42.662;23.278;2023-05-07T09:50:57;5.83;;;3.93;;
19758;SDS011;10038;42.662;23.278;2023-05-07T09:53:29;4.37;;;4.00;;
19758;SDS011;10038;42.662;23.278;2023-05-07T09:55:58;4.40;;;4.00;;
19758;SDS011;10038;42.662;23.278;2023-05-07T09:58:26;4.27;;;3.87;;
19758;SDS011;10038;42.662;23.278;2023-05-07T10:00:54;6.10;;;4.10;;
19758;SDS011;10038;42.662;23.278;2023-05-07T10:03:23;3.83;;;3.53;;
19758;SDS011;10038;42.662;23.278;2023-05-07T10:05:53;4.13;;;3.67;;
19758;SDS011;10038;42.662;23.278;2023-05-07T10:08:20;4.57;;;4.17;;
19758;SDS011;10038;42.662;23.278;2023-05-07T10:10:47;3.73;;;3.43;;
19758;SDS011;10038;42.662;23.278;2023-05-07T10:13:17;4.73;;;3.83;;
19758;SDS011;10038;42.662;23.278;2023-05-07T10:15:45;5.80;;;5.30;;
19758;SDS011;10038;42.662;23.278;2023-05-07T10:18:14;5.23;;;4.73;;
19758;SDS011;10038;42.662;23.278;2023-05-07T10:20:41;4.83;;;4.43;;
19758;SDS011;10038;42.662;23.278;2023-05-07T10:23:13;5.13;;;4.73;;
19758;SDS011;10038;42.662;23.278;2023-05-07T10:25:41;5.83;;;5.23;;
19758;SDS011;10038;42.662;23.278;2023-05-07T10:28:08;6.20;;;4.87;;
19758;SDS011;10038;42.662;23.278;2023-05-07T10:30:40;6.83;;;4.40;;
19758;SDS011;10038;42.662;23.278;2023-05-07T10:33:19;7.97;;;4.60;;
19758;SDS011;10038;42.662;23.278;2023-05-07T10:35:50;6.30;;;4.97;;
19758;SDS011;10038;42.662;23.278;2023-05-07T10:38:17;8.57;;;4.47;;
19758;SDS011;10038;42.662;23.278;2023-05-07T10:40:44;5.23;;;3.83;;
19758;SDS011;10038;42.662;23.278;2023-05-07T10:43:11;4.80;;;4.40;;
19758;SDS011;10038;42.662;23.278;2023-05-07T10:46:11;4.90;;;4.40;;
19758;SDS011;10038;42.662;23.278;2023-05-07T10:51:36;4.93;;;4.20;;
19758;SDS011;10038;42.662;23.278;2023-05-07T10:54:22;5.83;;;4.13;;
19758;SDS011;10038;42.662;23.278;2023-05-07T10:56:50;5.13;;;4.50;;
19758;SDS011;10038;42.662;23.278;2023-05-07T10:59:35;5.03;;;4.53;;
19758;SDS011;10038;42.662;23.278;2023-05-07T11:02:10;5.07;;;4.67;;
19758;SDS011;10038;42.662;23.278;2023-05-07T11:04:39;8.70;;;4.53;;
19758;SDS011;10038;42.662;23.278;2023-05-07T11:10:02;5.10;;;4.70;;
19758;SDS011;10038;42.662;23.278;2023-05-07T11:12:52;5.20;;;4.80;;
19758;SDS011;10038;42.662;23.278;2023-05-07T11:15:39;6.00;;;4.60;;
19758;SDS011;10038;42.662;23.278;2023-05-07T11:18:10;4.57;;;4.13;;
19758;SDS011;10038;42.662;23.278;2023-05-07T11:20:44;5.23;;;4.70;;
19758;SDS011;10038;42.662;23.278;2023-05-07T11:26:24;5.40;;;4.27;;
19758;SDS011;10038;42.662;23.278;2023-05-07T11:28:52;5.87;;;4.20;;
19758;SDS011;10038;42.662;23.278;2023-05-07T11:31:20;7.67;;;4.97;;
19758;SDS011;10038;42.662;23.278;2023-05-07T11:33:51;4.03;;;3.27;;
19758;SDS011;10038;42.662;23.278;2023-05-07T11:36:18;4.67;;;4.30;;
19758;SDS011;10038;42.662;23.278;2023-05-07T11:38:46;3.90;;;3.47;;
19758;SDS011;10038;42.662;23.278;2023-05-07T11:41:13;3.90;;;3.60;;
19758;SDS011;10038;42.662;23.278;2023-05-07T11:43:53;4.73;;;4.33;;
19758;SDS011;10038;42.662;23.278;2023-05-07T11:46:21;4.40;;;4.10;;
19758;SDS011;10038;42.662;23.278;2023-05-07T11:48:48;4.73;;;4.43;;
19758;SDS011;10038;42.662;23.278;2023-05-07T11:51:19;6.23;;;4.10;;
19758;SDS011;10038;42.662;23.278;2023-05-07T11:53:47;4.80;;;3.97;;
19758;SDS011;10038;42.662;23.278;2023-05-07T11:56:15;10.30;;;3.87;;
19758;SDS011;10038;42.662;23.278;2023-05-07T11:58:44;5.03;;;4.63;;
19758;SDS011;10038;42.662;23.278;2023-05-07T12:01:13;3.93;;;3.63;;
19758;SDS011;10038;42.662;23.278;2023-05-07T12:03:42;6.13;;;4.17;;
19758;SDS011;10038;42.662;23.278;2023-05-07T12:06:10;4.10;;;3.73;;
19758;SDS011;10038;42.662;23.278;2023-05-07T12:08:40;3.93;;;3.63;;
19758;SDS011;10038;42.662;23.278;2023-05-07T12:11:08;4.23;;;3.73;;
19758;SDS011;10038;42.662;23.278;2023-05-07T12:13:37;4.20;;;3.90;;
19758;SDS011;10038;42.662;23.278;2023-05-07T12:16:05;5.73;;;4.00;;
19758;SDS011;10038;42.662;23.278;2023-05-07T12:18:33;3.77;;;3.47;;
19758;SDS011;10038;42.662;23.278;2023-05-07T12:21:01;4.20;;;3.70;;
19758;SDS011;10038;42.662;23.278;2023-05-07T12:23:30;5.23;;;3.50;;
19758;SDS011;10038;42.662;23.278;2023-05-07T12:25:58;4.30;;;3.90;;
19758;SDS011;10038;42.662;23.278;2023-05-07T12:28:26;4.63;;;4.20;;
19758;SDS011;10038;42.662;23.278;2023-05-07T12:30:53;3.93;;;3.63;;
19758;SDS011;10038;42.662;23.278;2023-05-07T12:33:23;3.80;;;3.60;;
19758;SDS011;10038;42.662;23.278;2023-05-07T12:35:51;3.70;;;3.40;;
19758;SDS011;10038;42.662;23.278;2023-05-07T12:38:20;3.53;;;3.23;;
19758;SDS011;10038;42.662;23.278;2023-05-07T12:40:47;3.17;;;2.97;;
19758;SDS011;10038;42.662;23.278;2023-05-07T12:43:17;3.90;;;3.60;;
19758;SDS011;10038;42.662;23.278;2023-05-07T12:45:45;3.53;;;3.23;;
19758;SDS011;10038;42.662;23.278;2023-05-07T12:48:13;3.53;;;3.23;;
19758;SDS011;10038;42.662;23.278;2023-05-07T12:50:40;3.80;;;3.40;;
19758;SDS011;10038;42.662;23.278;2023-05-07T12:53:08;3.47;;;3.07;;
19758;SDS011;10038;42.662;23.278;2023-05-07T12:55:40;3.80;;;3.20;;
19758;SDS011;10038;42.662;23.278;2023-05-07T12:58:13;4.20;;;3.80;;
19758;SDS011;10038;42.662;23.278;2023-05-07T13:00:43;3.80;;;3.50;;
19758;SDS011;10038;42.662;23.278;2023-05-07T13:03:11;3.80;;;3.13;;
19758;SDS011;10038;42.662;23.278;2023-05-07T13:05:38;4.23;;;3.83;;
19758;SDS011;10038;42.662;23.278;2023-05-07T13:08:05;4.00;;;3.37;;
19758;SDS011;10038;42.662;23.278;2023-05-07T13:10:34;3.40;;;3.10;;
19758;SDS011;10038;42.662;23.278;2023-05-07T13:13:01;3.43;;;3.10;;
19758;SDS011;10038;42.662;23.278;2023-05-07T13:15:29;4.20;;;3.20;;
19758;SDS011;10038;42.662;23.278;2023-05-07T13:17:57;4.70;;;3.37;;
19758;SDS011;10038;42.662;23.278;2023-05-07T13:20:24;4.00;;;3.60;;
19758;SDS011;10038;42.662;23.278;2023-05-07T13:22:51;4.60;;;4.20;;
19758;SDS011;10038;42.662;23.278;2023-05-07T13:25:18;7.20;;;3.63;;
19758;SDS011;10038;42.662;23.278;2023-05-07T13:27:45;3.20;;;3.00;;
19758;SDS011;10038;42.662;23.278;2023-05-07T13:30:12;3.77;;;3.47;;
19758;SDS011;10038;42.662;23.278;2023-05-07T13:32:39;4.20;;;3.13;;
19758;SDS011;10038;42.662;23.278;2023-05-07T13:35:08;3.60;;;3.40;;
19758;SDS011;10038;42.662;23.278;2023-05-07T13:37:35;3.97;;;3.67;;
19758;SDS011;10038;42.662;23.278;2023-05-07T13:40:02;3.40;;;3.20;;
19758;SDS011;10038;42.662;23.278;2023-05-07T13:42:29;3.70;;;3.40;;
19758;SDS011;10038;42.662;23.278;2023-05-07T13:44:57;3.40;;;3.07;;
19758;SDS011;10038;42.662;23.278;2023-05-07T13:47:23;3.37;;;3.17;;
19758;SDS011;10038;42.662;23.278;2023-05-07T13:49:50;3.90;;;3.50;;
19758;SDS011;10038;42.662;23.278;2023-05-07T13:52:19;3.60;;;2.93;;
19758;SDS011;10038;42.662;23.278;2023-05-07T13:54:46;3.90;;;3.53;;
19758;SDS011;10038;42.662;23.278;2023-05-07T13:57:13;3.57;;;3.37;;
19758;SDS011;10038;42.662;23.278;2023-05-07T13:59:40;3.70;;;3.40;;
19758;SDS011;10038;42.662;23.278;2023-05-07T14:02:07;4.57;;;3.60;;
19758;SDS011;10038;42.662;23.278;2023-05-07T14:04:34;3.67;;;3.37;;
19758;SDS011;10038;42.662;23.278;2023-05-07T14:07:01;4.10;;;3.73;;
19758;SDS011;10038;42.662;23.278;2023-05-07T14:09:29;3.27;;;2.97;;
19758;SDS011;10038;42.662;23.278;2023-05-07T14:11:56;3.90;;;2.77;;
19758;SDS011;10038;42.662;23.278;2023-05-07T14:14:23;3.50;;;3.20;;
19758;SDS011;10038;42.662;23.278;2023-05-07T14:16:50;4.27;;;3.23;;
19758;SDS011;10038;42.662;23.278;2023-05-07T14:19:17;3.83;;;3.53;;
19758;SDS011;10038;42.662;23.278;2023-05-07T14:21:44;6.13;;;3.50;;
19758;SDS011;10038;42.662;23.278;2023-05-07T14:24:11;4.20;;;3.37;;
19758;SDS011;10038;42.662;23.278;2023-05-07T14:26:39;5.03;;;3.97;;
19758;SDS011;10038;42.662;23.278;2023-05-07T14:29:06;5.53;;;3.30;;
19758;SDS011;10038;42.662;23.278;2023-05-07T14:31:33;13.47;;;4.30;;
19758;SDS011;10038;42.662;23.278;2023-05-07T14:34:00;5.70;;;3.40;;
19758;SDS011;10038;42.662;23.278;2023-05-07T14:36:27;5.87;;;3.70;;
19758;SDS011;10038;42.662;23.278;2023-05-07T14:38:55;9.47;;;4.23;;
19758;SDS011;10038;42.662;23.278;2023-05-07T14:41:24;7.10;;;3.50;;
19758;SDS011;10038;42.662;23.278;2023-05-07T14:43:52;3.83;;;3.57;;
19758;SDS011;10038;42.662;23.278;2023-05-07T14:46:19;3.20;;;3.00;;